createdAt,value
2018-07-03T15:53:08.864Z,1.70
2018-07-03T15:55:40.818Z,1.52
2018-07-03T15:58:09.660Z,1.45
2018-07-03T16:00:49.002Z,1.03
2018-07-03T16:05:30.239Z,1.20
2018-07-03T16:09:15.273Z,1.60
2018-07-03T16:11:44.103Z,1.60
2018-07-03T16:14:13.311Z,3.20
2018-07-03T16:16:46.092Z,1.30
2018-07-03T16:19:19.805Z,1.10
2018-07-03T16:21:48.476Z,1.23
2018-07-03T16:24:17.340Z,1.17
2018-07-03T16:26:45.916Z,1.20
2018-07-03T16:29:14.785Z,1.27
2018-07-03T16:31:43.554Z,1.20
2018-07-03T16:34:12.088Z,2.00
2018-07-03T16:36:40.735Z,1.67
2018-07-03T16:39:14.917Z,1.57
2018-07-03T16:41:43.419Z,1.50
2018-07-03T16:44:15.931Z,0.97
2018-07-03T16:46:44.697Z,0.90
2018-07-03T16:49:13.239Z,2.40
2018-07-03T16:51:41.820Z,1.70
2018-07-03T16:54:10.617Z,1.20
2018-07-03T16:56:39.194Z,1.40
2018-07-03T16:59:18.495Z,1.30
2018-07-03T17:01:47.311Z,2.37
2018-07-03T17:04:16.423Z,2.30
2018-07-03T17:06:45.010Z,1.60
2018-07-03T17:09:13.842Z,3.67
2018-07-03T17:11:42.373Z,1.90
2018-07-03T17:14:11.528Z,2.87
2018-07-03T17:16:45.667Z,4.70
2018-07-03T17:19:19.296Z,2.10
2018-07-03T17:21:47.830Z,4.70
2018-07-03T17:24:16.747Z,5.67
2018-07-03T17:26:45.555Z,3.70
2018-07-03T17:29:14.052Z,2.70
2018-07-03T17:31:46.939Z,2.10
2018-07-03T17:34:15.515Z,3.63
2018-07-03T17:36:44.889Z,1.80
2018-07-03T17:39:14.815Z,1.70
2018-07-03T17:41:55.041Z,3.33
2018-07-03T17:44:45.836Z,2.83
2018-07-03T17:47:14.674Z,1.90
2018-07-03T17:49:46.510Z,1.33
2018-07-03T17:52:15.054Z,2.33
2018-07-03T17:54:44.656Z,3.30
2018-07-03T17:57:13.532Z,3.10
2018-07-03T17:59:42.043Z,2.13
2018-07-03T18:02:10.583Z,1.87
2018-07-03T18:04:39.407Z,1.50
2018-07-03T18:07:08.228Z,2.00
2018-07-03T18:09:42.153Z,1.70
2018-07-03T18:12:10.703Z,3.27
2018-07-03T18:14:43.450Z,3.30
2018-07-03T18:17:12.237Z,3.50
2018-07-03T18:22:16.882Z,2.07
2018-07-03T18:24:45.694Z,2.40
2018-07-03T18:27:14.228Z,3.70
2018-07-03T18:29:42.790Z,2.47
2018-07-03T18:32:11.568Z,2.03
2018-07-03T18:34:51.354Z,2.33
2018-07-03T18:37:19.953Z,2.57
2018-07-03T18:39:48.941Z,2.00
2018-07-03T18:42:20.375Z,2.60
2018-07-03T18:44:49.823Z,1.97
2018-07-03T18:47:18.798Z,3.30
2018-07-03T18:49:47.362Z,2.50
2018-07-03T18:52:15.816Z,2.53
2018-07-03T18:54:44.626Z,3.43
2018-07-03T18:57:13.170Z,2.60
2018-07-03T18:59:41.674Z,3.53
2018-07-03T19:02:10.442Z,2.70
2018-07-03T19:04:39.004Z,2.30
2018-07-03T19:12:15.380Z,2.37
2018-07-03T19:29:07.297Z,3.00
2018-07-03T19:31:35.853Z,2.90
2018-07-03T19:34:08.364Z,2.60
2018-07-03T19:36:36.994Z,2.70
2018-07-03T19:39:12.883Z,1.80
2018-07-03T19:41:42.386Z,2.53
2018-07-03T19:44:11.180Z,1.97
2018-07-03T19:46:40.041Z,2.60
2018-07-03T19:49:08.633Z,2.00
2018-07-03T19:51:37.500Z,2.83
2018-07-03T19:54:06.252Z,2.57
2018-07-03T19:56:35.960Z,2.27
2018-07-03T19:59:04.948Z,2.23
2018-07-03T20:01:33.492Z,2.70
2018-07-03T20:06:28.709Z,2.53
2018-07-03T20:09:04.807Z,2.60
2018-07-03T20:11:33.555Z,3.90
2018-07-03T20:14:03.281Z,2.73
2018-07-03T20:16:31.787Z,3.07
2018-07-03T20:19:00.771Z,2.27
2018-07-03T20:21:29.270Z,3.70
2018-07-03T20:23:57.808Z,2.67
2018-07-03T20:26:26.650Z,3.10
2018-07-03T20:28:59.827Z,3.10
2018-07-03T20:31:28.387Z,2.70
2018-07-03T20:34:04.076Z,3.00
2018-07-03T20:36:32.609Z,3.33
2018-07-03T20:39:01.245Z,2.40
2018-07-03T20:41:30.212Z,3.00
2018-07-03T20:43:58.752Z,4.60
2018-07-03T20:46:27.270Z,4.40
2018-07-03T20:49:01.880Z,5.07
2018-07-03T20:51:30.473Z,6.13
2018-07-03T20:53:59.030Z,4.47
2018-07-03T20:56:32.641Z,4.37
2018-07-03T20:59:01.131Z,4.50
2018-07-03T21:01:29.696Z,4.50
2018-07-03T21:03:58.271Z,4.70
2018-07-03T21:09:09.424Z,4.80
2018-07-03T21:11:38.286Z,5.87
2018-07-03T21:16:46.682Z,6.77
2018-07-03T21:19:22.864Z,5.53
2018-07-03T21:21:51.676Z,5.17
2018-07-03T21:24:20.219Z,5.40
2018-07-03T21:26:53.941Z,6.23
2018-07-03T21:29:23.047Z,7.37
2018-07-03T21:31:57.726Z,6.70
2018-07-03T21:34:26.185Z,7.17
2018-07-03T21:36:54.747Z,8.80
2018-07-03T21:39:23.724Z,7.10
2018-07-03T21:41:52.274Z,5.80
2018-07-03T21:44:26.251Z,7.80
2018-07-03T21:46:55.166Z,6.90
2018-07-03T21:49:23.682Z,7.83
2018-07-03T21:51:53.396Z,7.33
2018-07-03T21:54:22.324Z,8.90
2018-07-03T21:56:50.882Z,8.77
2018-07-03T21:59:24.007Z,7.07
2018-07-03T22:01:53.089Z,6.37
2018-07-03T22:04:21.678Z,7.40
2018-07-03T22:06:50.467Z,4.90
2018-07-03T22:09:19.351Z,5.70
2018-07-03T22:11:47.897Z,6.00
2018-07-03T22:14:16.472Z,4.00
2018-07-03T22:16:55.182Z,4.07
2018-07-03T22:19:24.009Z,3.40
2018-07-03T22:21:53.477Z,3.90
2018-07-03T22:24:22.481Z,4.17
2018-07-03T22:26:51.671Z,3.90
2018-07-03T22:29:22.368Z,3.77
2018-07-03T22:31:50.900Z,3.73
2018-07-03T22:34:19.418Z,4.67
2018-07-03T22:36:47.972Z,4.20
2018-07-03T22:39:16.974Z,4.50
2018-07-03T22:41:45.508Z,4.53
2018-07-03T22:44:14.571Z,3.70
2018-07-03T22:46:47.279Z,3.77
2018-07-03T22:49:15.840Z,3.60
2018-07-03T22:51:44.516Z,3.87
2018-07-03T22:54:13.903Z,3.43
2018-07-03T22:56:45.999Z,4.13
2018-07-03T22:59:14.572Z,3.13
2018-07-03T23:01:46.686Z,3.23
2018-07-03T23:04:15.270Z,3.03
2018-07-03T23:06:49.723Z,3.13
2018-07-03T23:09:18.259Z,2.63
2018-07-03T23:11:50.444Z,2.77
2018-07-03T23:15:21.615Z,2.60
2018-07-03T23:17:50.157Z,4.23
2018-07-03T23:20:18.723Z,3.90
2018-07-03T23:22:47.589Z,3.03
2018-07-03T23:25:16.591Z,2.80
2018-07-03T23:27:45.293Z,3.40
2018-07-03T23:30:13.815Z,2.47
2018-07-03T23:32:42.807Z,3.50
2018-07-03T23:35:11.403Z,2.93
2018-07-03T23:37:39.935Z,3.20
2018-07-03T23:40:08.999Z,3.17
2018-07-03T23:42:37.559Z,3.00
2018-07-03T23:45:06.283Z,3.80
2018-07-03T23:47:46.055Z,3.00
2018-07-03T23:50:25.619Z,4.40
2018-07-03T23:53:05.573Z,3.60
2018-07-03T23:55:50.353Z,3.83
